Time;durP1;ratioP1;P1;durP2;ratioP2;P2;SDS_P1;SDS_P2;PMS_P1;PMS_P2;Temp;Humidity;BMP_temperature;BMP_pressure;BME280_temperature;BME280_humidity;BME280_pressure;Samples;Min_cycle;Max_cycle;Signal;HPM_P1;HPM_P2
2021/10/15 00:02:22;;;;;;;4.55;1.90;;;2.50;99.90;;;;;;21158815;28;20036;-54
2021/10/15 00:12:24;;;;;;;1.70;1.00;;;2.40;99.90;;;;;;21158089;28;20023;-55
2021/10/15 00:22:26;;;;;;;1.27;1.00;;;2.20;99.90;;;;;;21157113;28;20035;-54
2021/10/15 00:32:28;;;;;;;2.38;0.90;;;2.20;99.90;;;;;;21156047;28;20036;-51
2021/10/15 00:42:30;;;;;;;2.50;0.88;;;2.30;99.90;;;;;;21155473;28;20402;-54
2021/10/15 00:52:32;;;;;;;1.73;1.08;;;2.40;99.90;;;;;;21154570;28;20035;-51
2021/10/15 01:02:36;;;;;;;3.00;1.20;;;2.30;99.90;;;;;;21135869;28;20367;-55
2021/10/15 01:12:40;;;;;;;1.17;0.63;;;2.10;99.90;;;;;;21153469;28;20031;-52
2021/10/15 01:22:42;;;;;;;1.17;0.68;;;2.00;99.90;;;;;;21153200;28;20089;-56
2021/10/15 01:32:43;;;;;;;2.40;0.82;;;2.10;99.90;;;;;;21152745;28;20043;-54
2021/10/15 01:42:54;;;;;;;1.75;0.47;;;2.00;99.90;;;;;;21095673;28;20483;-54
2021/10/15 01:52:56;;;;;;;1.90;0.50;;;1.80;99.90;;;;;;21068167;28;20443;-50
2021/10/15 02:02:59;;;;;;;1.40;0.60;;;1.70;99.90;;;;;;21049865;28;20035;-54
2021/10/15 02:13:01;;;;;;;1.20;0.70;;;1.70;99.90;;;;;;21048795;28;20032;-51
2021/10/15 02:23:03;;;;;;;1.40;0.85;;;1.70;99.90;;;;;;21081496;28;20039;-54
2021/10/15 02:33:06;;;;;;;3.85;0.70;;;1.70;99.90;;;;;;21081549;28;20036;-56
2021/10/15 02:43:07;;;;;;;1.23;0.50;;;1.60;99.90;;;;;;21103320;27;20039;-54
2021/10/15 02:53:09;;;;;;;0.75;0.40;;;1.50;99.90;;;;;;21164096;28;20042;-53
2021/10/15 03:03:11;;;;;;;3.80;0.60;;;1.60;99.90;;;;;;21163286;28;20050;-51
2021/10/15 03:13:13;;;;;;;2.40;0.60;;;1.70;99.90;;;;;;21162514;28;20031;-53
2021/10/15 03:23:16;;;;;;;1.25;0.50;;;1.80;99.90;;;;;;21120487;28;20099;-52
2021/10/15 03:33:18;;;;;;;1.00;0.40;;;1.70;99.90;;;;;;21109137;28;20028;-54
2021/10/15 03:43:19;;;;;;;2.97;0.50;;;1.60;99.90;;;;;;21141565;28;20394;-56
2021/10/15 03:53:22;;;;;;;1.50;0.75;;;1.80;99.90;;;;;;21159353;28;20360;-54
2021/10/15 04:03:23;;;;;;;0.65;0.40;;;1.70;99.90;;;;;;21158593;28;20031;-54
2021/10/15 04:13:25;;;;;;;0.70;0.40;;;1.60;99.90;;;;;;21139608;28;20036;-55
2021/10/15 04:23:27;;;;;;;1.40;0.60;;;1.50;99.90;;;;;;21157095;28;20036;-56
2021/10/15 04:33:29;;;;;;;0.98;0.50;;;1.50;99.90;;;;;;21156080;28;20028;-55
2021/10/15 04:43:31;;;;;;;0.60;0.30;;;1.60;99.90;;;;;;21153304;28;20082;-55
2021/10/15 04:53:34;;;;;;;1.17;0.20;;;1.80;99.90;;;;;;21151649;28;20359;-53
2021/10/15 05:03:36;;;;;;;0.73;0.28;;;1.80;99.90;;;;;;21132754;28;20475;-54
2021/10/15 05:13:38;;;;;;;0.95;0.30;;;1.70;99.90;;;;;;21149969;28;20039;-55
2021/10/15 05:23:40;;;;;;;1.05;0.35;;;1.70;99.90;;;;;;21149946;28;20078;-55
2021/10/15 05:33:42;;;;;;;0.50;0.28;;;1.70;99.90;;;;;;21149007;28;20035;-56
2021/10/15 05:43:44;;;;;;;0.77;0.30;;;1.90;99.90;;;;;;21098848;28;1469879;-55
2021/10/15 05:53:46;;;;;;;1.67;0.20;;;2.20;99.90;;;;;;21161344;28;20074;-51
2021/10/15 06:03:59;;;;;;;0.40;0.15;;;2.40;99.90;;;;;;21168399;28;20039;-54
2021/10/15 06:24:15;;;;;;;0.47;0.13;;;2.70;99.90;;;;;;21166821;28;20027;-52
2021/10/15 06:34:18;;;;;;;0.25;0.17;;;2.70;99.90;;;;;;21166077;28;20547;-53
2021/10/15 06:44:19;;;;;;;1.05;0.28;;;2.70;99.90;;;;;;21166803;28;20048;-51
2021/10/15 06:54:21;;;;;;;0.35;0.20;;;3.00;99.90;;;;;;21171574;27;20458;-51
2021/10/15 07:04:23;;;;;;;0.20;0.10;;;3.40;99.90;;;;;;21247311;27;20072;-54
2021/10/15 07:14:27;;;;;;;1.42;0.30;;;4.00;99.90;;;;;;21248234;27;20080;-55
2021/10/15 07:24:29;;;;;;;0.80;0.32;;;4.80;99.90;;;;;;21176753;27;20036;-51
2021/10/15 07:34:31;;;;;;;0.88;0.32;;;5.70;99.90;;;;;;21161497;28;20031;-51
2021/10/15 07:44:33;;;;;;;0.93;0.35;;;6.50;99.90;;;;;;21159896;28;20040;-50
2021/10/15 07:54:36;;;;;;;0.85;0.30;;;7.50;99.90;;;;;;21142100;28;20471;-53
2021/10/15 08:04:37;;;;;;;2.03;0.75;;;8.90;99.90;;;;;;21159014;28;20471;-55
2021/10/15 08:14:39;;;;;;;0.80;0.50;;;9.90;99.90;;;;;;21157505;28;20040;-54
2021/10/15 08:24:41;;;;;;;2.40;0.70;;;10.50;99.90;;;;;;21157483;28;20109;-57
2021/10/15 08:34:43;;;;;;;0.90;0.50;;;11.10;99.90;;;;;;21156371;28;20039;-51
2021/10/15 08:44:46;;;;;;;1.05;0.50;;;11.60;99.90;;;;;;21155720;28;20036;-52
2021/10/15 08:54:48;;;;;;;1.05;0.70;;;11.70;99.90;;;;;;21155178;28;20532;-57
2021/10/15 09:04:55;;;;;;;1.35;0.80;;;12.00;99.90;;;;;;21154385;28;20077;-53
2021/10/15 09:15:07;;;;;;;1.15;0.60;;;11.90;99.90;;;;;;21153877;28;20057;-56
2021/10/15 09:25:14;;;;;;;1.30;0.60;;;12.40;99.90;;;;;;21152887;28;20027;-56
2021/10/15 09:35:19;;;;;;;1.50;0.90;;;12.70;98.70;;;;;;21152864;28;20096;-54
2021/10/15 09:45:23;;;;;;;0.98;0.50;;;13.00;98.00;;;;;;21074241;28;20056;-52
2021/10/15 09:55:32;;;;;;;0.93;0.50;;;13.40;96.70;;;;;;21084022;28;20073;-55
2021/10/15 10:05:34;;;;;;;1.58;0.60;;;13.80;95.90;;;;;;21154448;28;20044;-53
2021/10/15 10:15:45;;;;;;;1.63;0.70;;;14.00;95.70;;;;;;21141234;28;20028;-57
2021/10/15 10:25:47;;;;;;;1.50;0.90;;;13.80;97.30;;;;;;21057657;28;20176;-53
2021/10/15 10:35:51;;;;;;;2.35;1.40;;;14.00;96.80;;;;;;21066251;28;20036;-50
2021/10/15 10:46:21;;;;;;;4.05;2.40;;;14.30;96.30;;;;;;21080046;28;20048;-50
2021/10/15 10:56:50;;;;;;;4.93;3.00;;;14.30;97.40;;;;;;21084530;28;20035;-49
2021/10/15 11:06:58;;;;;;;4.87;3.03;;;14.20;96.90;;;;;;21151711;28;20089;-52
2021/10/15 11:17:09;;;;;;;4.50;2.92;;;13.90;98.10;;;;;;21156325;28;20031;-49
2021/10/15 11:27:18;;;;;;;5.35;3.50;;;14.00;97.90;;;;;;21086978;28;20074;-50
2021/10/15 11:37:20;;;;;;;4.68;3.03;;;14.30;98.50;;;;;;21119555;28;20024;-50
2021/10/15 11:47:21;;;;;;;4.65;2.85;;;14.30;97.90;;;;;;21147943;28;20051;-50
2021/10/15 11:57:23;;;;;;;5.63;4.05;;;14.40;98.10;;;;;;21158795;28;20065;-50
2021/10/15 12:07:25;;;;;;;6.57;3.47;;;14.40;98.80;;;;;;21158111;28;20084;-52
2021/10/15 12:17:27;;;;;;;7.25;4.07;;;14.20;99.10;;;;;;21174317;27;20510;-50
2021/10/15 12:27:38;;;;;;;7.28;4.22;;;14.00;99.90;;;;;;21236994;27;20375;-53
2021/10/15 12:37:49;;;;;;;6.60;4.10;;;14.00;99.10;;;;;;21134925;28;20027;-50
2021/10/15 12:48:01;;;;;;;8.82;4.70;;;13.70;99.80;;;;;;21094315;28;20119;-56
2021/10/15 12:58:06;;;;;;;8.40;4.82;;;13.50;99.30;;;;;;21064225;28;20069;-60
2021/10/15 13:08:07;;;;;;;10.95;5.85;;;13.50;99.90;;;;;;21066345;28;20424;-63
2021/10/15 13:18:10;;;;;;;10.55;6.28;;;13.10;99.90;;;;;;21063771;28;20040;-62
2021/10/15 13:28:12;;;;;;;9.93;5.95;;;12.40;99.90;;;;;;21040345;28;20168;-60
2021/10/15 13:38:18;;;;;;;10.95;7.60;;;11.80;99.90;;;;;;21056149;28;20036;-53
2021/10/15 14:08:34;;;;;;;15.73;10.02;;;10.40;99.90;;;;;;21139704;28;20351;-62
2021/10/15 14:18:36;;;;;;;18.08;10.35;;;10.00;99.90;;;;;;21158721;27;20387;-63
2021/10/15 14:28:38;;;;;;;18.30;11.18;;;9.60;99.90;;;;;;21162056;28;20025;-55
2021/10/15 14:38:41;;;;;;;16.70;10.13;;;9.30;99.90;;;;;;21162145;27;20035;-52
2021/10/15 14:48:43;;;;;;;16.27;9.73;;;9.00;99.90;;;;;;21152232;28;20530;-54
2021/10/15 14:58:45;;;;;;;19.30;11.02;;;8.50;99.90;;;;;;21159175;28;20043;-59
2021/10/15 15:08:47;;;;;;;20.80;12.27;;;8.20;99.90;;;;;;21157892;28;20479;-55
2021/10/15 15:18:49;;;;;;;18.42;10.73;;;8.10;99.90;;;;;;21157675;28;20024;-53
2021/10/15 15:28:53;;;;;;;16.05;10.20;;;7.80;99.90;;;;;;21161527;28;20032;-50
2021/10/15 15:38:54;;;;;;;16.85;8.60;;;7.30;99.90;;;;;;21161624;27;20035;-50
2021/10/15 15:48:56;;;;;;;7.85;4.70;;;6.80;99.90;;;;;;21093808;28;20039;-53
2021/10/15 15:58:58;;;;;;;8.55;4.80;;;6.30;99.90;;;;;;21073124;28;20058;-52
2021/10/15 16:09:00;;;;;;;11.05;6.68;;;5.90;99.90;;;;;;21065528;28;20074;-54
2021/10/15 16:19:01;;;;;;;12.65;7.25;;;5.60;99.90;;;;;;21061082;28;20036;-55
2021/10/15 16:29:05;;;;;;;10.05;6.32;;;5.30;99.90;;;;;;21069481;28;20032;-56
2021/10/15 16:39:07;;;;;;;11.20;6.25;;;5.00;99.90;;;;;;21153058;28;20052;-53
2021/10/15 16:49:10;;;;;;;11.63;6.28;;;4.80;99.90;;;;;;21154103;28;20035;-53
2021/10/15 16:59:11;;;;;;;10.95;6.53;;;4.80;99.90;;;;;;21085695;28;20185;-55
2021/10/15 17:09:13;;;;;;;11.10;6.20;;;4.60;99.90;;;;;;21069326;28;20032;-53
2021/10/15 17:19:15;;;;;;;12.15;6.97;;;4.50;99.90;;;;;;21070481;28;20028;-56
2021/10/15 17:29:18;;;;;;;10.38;6.28;;;4.40;99.90;;;;;;21068839;28;20377;-53
2021/10/15 17:39:22;;;;;;;9.80;5.50;;;4.30;99.90;;;;;;20992468;28;20032;-55
2021/10/15 17:49:24;;;;;;;6.88;3.97;;;4.30;99.90;;;;;;21058350;28;20039;-56
2021/10/15 17:59:27;;;;;;;8.88;4.80;;;4.20;99.90;;;;;;21084384;28;20032;-52
2021/10/15 18:09:30;;;;;;;11.07;6.30;;;4.10;99.90;;;;;;21075640;28;20085;-56
2021/10/15 18:19:32;;;;;;;9.73;5.65;;;4.10;99.90;;;;;;21083189;28;20032;-57
2021/10/15 18:29:34;;;;;;;13.40;8.73;;;4.00;99.90;;;;;;21084120;28;20054;-56
2021/10/15 18:39:36;;;;;;;12.82;6.15;;;4.10;99.90;;;;;;21165295;28;20445;-56
2021/10/15 18:49:38;;;;;;;9.55;5.20;;;4.30;99.90;;;;;;21164626;28;20096;-51
2021/10/15 18:59:41;;;;;;;11.25;6.38;;;4.10;99.90;;;;;;21163103;28;20031;-57
2021/10/15 19:09:43;;;;;;;10.95;6.03;;;4.00;99.90;;;;;;21140023;28;20031;-56
2021/10/15 19:19:47;;;;;;;9.27;5.40;;;4.00;99.90;;;;;;21058938;28;20113;-56
2021/10/15 19:29:50;;;;;;;12.65;6.30;;;4.00;99.90;;;;;;21111128;28;20036;-55
2021/10/15 19:39:52;;;;;;;10.68;6.72;;;4.00;99.90;;;;;;20172490;28;10000682;-61
2021/10/15 19:49:55;;;;;;;10.52;7.03;;;4.00;99.90;;;;;;20827412;28;20404;-59
2021/10/15 19:59:58;;;;;;;7.28;4.30;;;4.10;99.90;;;;;;20826189;28;20041;-57
2021/10/15 20:10:01;;;;;;;7.20;4.28;;;4.00;99.90;;;;;;20886595;28;20086;-57
2021/10/15 20:20:06;;;;;;;7.88;4.78;;;3.90;99.90;;;;;;20906968;28;20045;-55
2021/10/15 20:30:10;;;;;;;15.70;9.18;;;3.90;99.90;;;;;;20905365;28;20045;-56
2021/10/15 20:40:12;;;;;;;12.70;6.57;;;4.00;99.90;;;;;;20881840;28;20049;-50
2021/10/15 20:50:15;;;;;;;10.98;7.20;;;4.30;99.90;;;;;;20804371;28;20497;-52
2021/10/15 21:00:17;;;;;;;12.80;6.50;;;4.50;99.90;;;;;;20820252;28;20068;-54
2021/10/15 21:10:21;;;;;;;9.70;6.57;;;4.50;99.90;;;;;;20820296;28;20432;-51
2021/10/15 21:20:24;;;;;;;8.50;4.60;;;4.30;99.90;;;;;;20819732;28;20037;-53
2021/10/15 21:30:27;;;;;;;7.47;4.22;;;4.50;99.90;;;;;;20819437;28;20033;-54
2021/10/15 21:40:29;;;;;;;5.68;3.47;;;4.60;99.90;;;;;;20871928;28;20397;-53
2021/10/15 21:50:30;;;;;;;6.70;4.07;;;4.50;99.90;;;;;;20818758;28;20092;-53
2021/10/15 22:00:32;;;;;;;6.13;3.03;;;4.40;99.90;;;;;;20818624;28;20061;-52
2021/10/15 22:10:34;;;;;;;4.68;2.83;;;4.30;99.90;;;;;;20883756;28;20083;-54
2021/10/15 22:20:37;;;;;;;3.97;2.13;;;4.30;99.90;;;;;;20900086;28;20044;-53
2021/10/15 22:30:39;;;;;;;7.03;2.83;;;4.20;99.90;;;;;;20899844;28;20064;-51
2021/10/15 22:40:41;;;;;;;2.20;1.20;;;4.10;99.90;;;;;;20887012;28;20052;-54
2021/10/15 22:50:43;;;;;;;9.20;2.75;;;4.10;99.90;;;;;;20831305;28;20085;-52
2021/10/15 23:00:46;;;;;;;6.47;3.30;;;4.00;99.90;;;;;;20812609;28;20363;-53
2021/10/15 23:10:47;;;;;;;1.30;0.85;;;4.10;99.90;;;;;;20829914;28;20034;-54
2021/10/15 23:20:50;;;;;;;1.23;0.50;;;4.10;99.90;;;;;;20828623;28;20033;-50
2021/10/15 23:30:52;;;;;;;1.23;0.65;;;4.20;99.90;;;;;;20828359;28;20092;-55
2021/10/15 23:40:54;;;;;;;0.98;0.40;;;4.20;99.90;;;;;;20900780;28;20037;-52
2021/10/15 23:50:56;;;;;;;1.35;0.43;;;4.40;99.90;;;;;;20908070;28;20029;-50
